Terminal Aerodrome Forecast
Issued by NWS Cleveland, OH

Home | Current Version | Previous Version | Graphics & Text | Print | Product List | Glossary On
Versions: 1 2 3 4 5 6 7 8 9 10 11 12 13 14 15 16 17 18 19 20 21
000
FTUS41 KCLE 172337
TAFCAK
TAF
KCAK 172337Z 1800/1824 27007KT P6SM OVC025
     FM180500 26010KT P6SM OVC009
     FM180900 27010KT P6SM -SHRA OVC009
     FM181300 27009KT 4SM -DZ BR OVC009
     FM181600 27009KT 4SM BR OVC003
     FM181800 26009KT P6SM OVC009=

USA.gov is the U.S. government's official web portal to all federal, state and local government web resources and services.